createdAt,value
2023-04-12T00:03:54.128Z,3.56
2023-04-12T00:19:36.792Z,3.47
2023-04-12T00:35:19.078Z,3.22
2023-04-12T00:51:01.452Z,2.88
2023-04-12T01:06:44.547Z,2.6
2023-04-12T01:22:27.601Z,2.42
2023-04-12T01:38:10.081Z,2.18
2023-04-12T01:53:53.263Z,1.86
2023-04-12T02:09:35.527Z,1.73
2023-04-12T02:25:18.386Z,1.55
2023-04-12T02:41:01.053Z,1.29
2023-04-12T02:56:43.791Z,1.16
2023-04-12T03:12:26.495Z,1.02
2023-04-12T03:28:09.637Z,0.81
2023-04-12T03:43:52.037Z,0.6
2023-04-12T03:59:34.751Z,0.4
2023-04-12T04:15:17.075Z,0.25
2023-04-12T04:30:59.536Z,0.3
2023-04-12T04:46:41.864Z,0.37
2023-04-12T05:02:24.553Z,0.46
2023-04-12T05:18:07.510Z,0.78
2023-04-12T05:33:50.462Z,1.25
2023-04-12T05:49:33.489Z,1.99
2023-04-12T06:05:15.875Z,2.74
2023-04-12T06:20:58.856Z,3.55
2023-04-12T06:36:41.202Z,4.33
2023-04-12T07:08:06.631Z,6
2023-04-12T07:08:54.104Z,6.19
2023-04-12T07:24:36.921Z,7.1
2023-04-12T07:40:19.702Z,7.97
2023-04-12T07:56:02.781Z,8.88
2023-04-12T08:11:44.796Z,9.64
2023-04-12T08:27:27.731Z,10.34
2023-04-12T08:58:52.359Z,13.72
2023-04-12T09:30:16.900Z,15.49
2023-04-12T09:45:59.179Z,16.5
2023-04-12T10:01:41.999Z,17.18
2023-04-12T10:17:24.081Z,18.34
2023-04-12T10:48:48.538Z,20.06
2023-04-12T11:04:30.942Z,20.68
2023-04-12T11:20:13.373Z,21.8
2023-04-12T11:35:55.825Z,22.84
2023-04-12T11:51:37.800Z,22.29
2023-04-12T12:07:27.677Z,24.03
2023-04-12T12:23:02.943Z,23.02
2023-04-12T12:38:44.905Z,21.22
2023-04-12T12:54:27.269Z,19.73
2023-04-12T13:10:10.329Z,18.66
2023-04-12T13:25:52.529Z,19.15
2023-04-12T13:41:35.142Z,20.14
2023-04-12T13:57:17.672Z,19.93
2023-04-12T14:12:59.750Z,18.73
2023-04-12T14:28:41.738Z,16.99
2023-04-12T14:44:24.321Z,16.02
2023-04-12T15:15:49.514Z,14.5
2023-04-12T15:31:32.402Z,13.59
2023-04-12T15:47:14.581Z,12.9
2023-04-12T16:02:57.202Z,12.32
2023-04-12T16:18:40.029Z,11.82
2023-04-12T16:34:22.614Z,11.47
2023-04-12T16:50:05.252Z,11.19
2023-04-12T17:05:48.149Z,11.02
2023-04-12T17:21:30.678Z,10.85
2023-04-12T17:37:12.953Z,10.73
2023-04-12T17:52:55.318Z,10.62
2023-04-12T18:08:37.885Z,10.5
2023-04-12T18:24:20.243Z,10.48
2023-04-12T18:40:02.459Z,10.52
2023-04-12T18:55:45.367Z,10.45
2023-04-12T19:11:27.367Z,10.2
2023-04-12T19:27:09.951Z,9.91
2023-04-12T19:42:52.763Z,9.7
2023-04-12T19:58:35.437Z,9.6
2023-04-12T20:14:17.680Z,9.58
2023-04-12T20:30:00.077Z,9.51
2023-04-12T20:45:42.985Z,9.41
2023-04-12T21:01:25.427Z,9.14
2023-04-12T21:17:07.811Z,8.93
2023-04-12T21:32:50.020Z,8.81
2023-04-12T21:48:32.452Z,8.76
2023-04-12T22:04:14.605Z,8.68
2023-04-12T22:19:56.908Z,8.64
2023-04-12T22:35:39.441Z,8.64
2023-04-12T22:51:21.766Z,8.68
2023-04-12T23:07:04.701Z,8.64
2023-04-12T23:22:47.461Z,8.6
2023-04-12T23:38:30.130Z,8.57
2023-04-12T23:54:12.798Z,8.47
